sensor_id;sensor_type;location;lat;lon;timestamp;P1;durP1;ratioP1;P2;durP2;ratioP2
47429;SDS011;33181;49.246;7.372;2023-04-16T00:00:16;7.60;;;6.20;;
47429;SDS011;33181;49.246;7.372;2023-04-16T00:02:42;7.27;;;6.50;;
47429;SDS011;33181;49.246;7.372;2023-04-16T00:05:08;6.97;;;6.20;;
47429;SDS011;33181;49.246;7.372;2023-04-16T00:07:33;7.80;;;6.17;;
47429;SDS011;33181;49.246;7.372;2023-04-16T00:09:59;7.43;;;5.63;;
47429;SDS011;33181;49.246;7.372;2023-04-16T00:12:26;6.17;;;5.57;;
47429;SDS011;33181;49.246;7.372;2023-04-16T00:14:51;6.00;;;5.40;;
47429;SDS011;33181;49.246;7.372;2023-04-16T00:17:17;7.70;;;5.60;;
47429;SDS011;33181;49.246;7.372;2023-04-16T00:19:43;8.03;;;5.53;;
47429;SDS011;33181;49.246;7.372;2023-04-16T00:22:08;5.83;;;5.20;;
47429;SDS011;33181;49.246;7.372;2023-04-16T00:24:34;6.90;;;5.57;;
47429;SDS011;33181;49.246;7.372;2023-04-16T00:27:00;6.60;;;5.50;;
47429;SDS011;33181;49.246;7.372;2023-04-16T00:29:26;6.00;;;5.40;;
47429;SDS011;33181;49.246;7.372;2023-04-16T00:31:52;6.97;;;5.70;;
47429;SDS011;33181;49.246;7.372;2023-04-16T00:34:18;5.70;;;5.10;;
47429;SDS011;33181;49.246;7.372;2023-04-16T00:36:44;5.23;;;4.73;;
47429;SDS011;33181;49.246;7.372;2023-04-16T00:39:10;7.23;;;5.50;;
47429;SDS011;33181;49.246;7.372;2023-04-16T00:41:36;6.13;;;5.53;;
47429;SDS011;33181;49.246;7.372;2023-04-16T00:44:02;6.20;;;5.07;;
47429;SDS011;33181;49.246;7.372;2023-04-16T00:46:28;6.40;;;5.50;;
47429;SDS011;33181;49.246;7.372;2023-04-16T00:48:55;5.97;;;5.37;;
47429;SDS011;33181;49.246;7.372;2023-04-16T00:51:21;5.80;;;5.07;;
47429;SDS011;33181;49.246;7.372;2023-04-16T00:53:49;6.03;;;5.00;;
47429;SDS011;33181;49.246;7.372;2023-04-16T00:56:15;6.20;;;4.97;;
47429;SDS011;33181;49.246;7.372;2023-04-16T00:58:41;5.80;;;5.07;;
47429;SDS011;33181;49.246;7.372;2023-04-16T01:01:07;6.33;;;5.03;;
47429;SDS011;33181;49.246;7.372;2023-04-16T01:03:37;5.23;;;4.73;;
47429;SDS011;33181;49.246;7.372;2023-04-16T01:06:05;8.30;;;5.30;;
47429;SDS011;33181;49.246;7.372;2023-04-16T01:08:31;8.63;;;5.13;;
47429;SDS011;33181;49.246;7.372;2023-04-16T01:10:57;6.37;;;5.70;;
47429;SDS011;33181;49.246;7.372;2023-04-16T01:13:23;5.60;;;5.00;;
47429;SDS011;33181;49.246;7.372;2023-04-16T01:15:50;7.30;;;5.30;;
47429;SDS011;33181;49.246;7.372;2023-04-16T01:18:17;6.47;;;5.10;;
47429;SDS011;33181;49.246;7.372;2023-04-16T01:20:44;5.70;;;4.80;;
47429;SDS011;33181;49.246;7.372;2023-04-16T01:23:16;5.77;;;5.17;;
47429;SDS011;33181;49.246;7.372;2023-04-16T01:25:43;5.80;;;5.03;;
47429;SDS011;33181;49.246;7.372;2023-04-16T01:28:10;6.23;;;5.33;;
47429;SDS011;33181;49.246;7.372;2023-04-16T01:30:36;6.50;;;5.80;;
47429;SDS011;33181;49.246;7.372;2023-04-16T01:33:01;7.00;;;5.83;;
47429;SDS011;33181;49.246;7.372;2023-04-16T01:35:27;5.93;;;5.33;;
47429;SDS011;33181;49.246;7.372;2023-04-16T01:37:53;6.27;;;5.17;;
47429;SDS011;33181;49.246;7.372;2023-04-16T01:40:19;5.97;;;5.23;;
47429;SDS011;33181;49.246;7.372;2023-04-16T01:42:45;6.20;;;5.23;;
47429;SDS011;33181;49.246;7.372;2023-04-16T01:45:11;6.33;;;5.10;;
47429;SDS011;33181;49.246;7.372;2023-04-16T01:47:37;6.40;;;5.30;;
47429;SDS011;33181;49.246;7.372;2023-04-16T01:50:03;6.20;;;5.43;;
47429;SDS011;33181;49.246;7.372;2023-04-16T01:52:29;5.57;;;5.00;;
47429;SDS011;33181;49.246;7.372;2023-04-16T01:54:55;5.60;;;5.00;;
47429;SDS011;33181;49.246;7.372;2023-04-16T01:57:21;7.10;;;5.77;;
47429;SDS011;33181;49.246;7.372;2023-04-16T01:59:47;5.13;;;4.63;;
47429;SDS011;33181;49.246;7.372;2023-04-16T02:02:13;5.90;;;5.20;;
47429;SDS011;33181;49.246;7.372;2023-04-16T02:04:40;5.73;;;5.10;;
47429;SDS011;33181;49.246;7.372;2023-04-16T02:07:09;7.23;;;5.47;;
47429;SDS011;33181;49.246;7.372;2023-04-16T02:09:39;7.50;;;5.80;;
47429;SDS011;33181;49.246;7.372;2023-04-16T02:12:06;6.23;;;4.90;;
47429;SDS011;33181;49.246;7.372;2023-04-16T02:14:33;6.10;;;5.47;;
47429;SDS011;33181;49.246;7.372;2023-04-16T02:16:59;7.20;;;5.33;;
47429;SDS011;33181;49.246;7.372;2023-04-16T02:19:25;5.70;;;4.80;;
47429;SDS011;33181;49.246;7.372;2023-04-16T02:21:51;7.47;;;5.47;;
47429;SDS011;33181;49.246;7.372;2023-04-16T02:24:17;5.90;;;5.17;;
47429;SDS011;33181;49.246;7.372;2023-04-16T02:26:44;6.97;;;5.23;;
47429;SDS011;33181;49.246;7.372;2023-04-16T02:29:10;6.43;;;5.20;;
47429;SDS011;33181;49.246;7.372;2023-04-16T02:31:36;7.07;;;5.17;;
47429;SDS011;33181;49.246;7.372;2023-04-16T02:34:02;7.20;;;5.60;;
47429;SDS011;33181;49.246;7.372;2023-04-16T02:36:28;6.53;;;5.13;;
47429;SDS011;33181;49.246;7.372;2023-04-16T02:38:56;7.13;;;5.37;;
47429;SDS011;33181;49.246;7.372;2023-04-16T02:41:22;6.03;;;4.93;;
47429;SDS011;33181;49.246;7.372;2023-04-16T02:43:48;7.37;;;5.40;;
47429;SDS011;33181;49.246;7.372;2023-04-16T02:46:14;7.03;;;5.40;;
47429;SDS011;33181;49.246;7.372;2023-04-16T02:48:40;6.67;;;5.23;;
47429;SDS011;33181;49.246;7.372;2023-04-16T02:51:06;6.20;;;5.13;;
47429;SDS011;33181;49.246;7.372;2023-04-16T02:53:32;6.70;;;5.57;;
47429;SDS011;33181;49.246;7.372;2023-04-16T02:55:57;6.10;;;5.10;;
47429;SDS011;33181;49.246;7.372;2023-04-16T02:58:24;7.97;;;6.17;;
47429;SDS011;33181;49.246;7.372;2023-04-16T03:00:51;9.13;;;6.40;;
47429;SDS011;33181;49.246;7.372;2023-04-16T03:03:18;8.07;;;6.00;;
47429;SDS011;33181;49.246;7.372;2023-04-16T03:05:44;8.37;;;5.93;;
47429;SDS011;33181;49.246;7.372;2023-04-16T03:08:10;7.77;;;5.80;;
47429;SDS011;33181;49.246;7.372;2023-04-16T03:10:36;7.07;;;5.73;;
47429;SDS011;33181;49.246;7.372;2023-04-16T03:13:02;8.07;;;5.90;;
47429;SDS011;33181;49.246;7.372;2023-04-16T03:15:28;8.53;;;5.50;;
47429;SDS011;33181;49.246;7.372;2023-04-16T03:17:56;7.20;;;5.23;;
47429;SDS011;33181;49.246;7.372;2023-04-16T03:20:22;7.10;;;5.60;;
47429;SDS011;33181;49.246;7.372;2023-04-16T03:22:48;7.23;;;5.50;;
47429;SDS011;33181;49.246;7.372;2023-04-16T03:25:16;6.47;;;5.03;;
47429;SDS011;33181;49.246;7.372;2023-04-16T03:27:42;6.77;;;5.27;;
47429;SDS011;33181;49.246;7.372;2023-04-16T03:30:10;8.37;;;5.80;;
47429;SDS011;33181;49.246;7.372;2023-04-16T03:32:38;7.70;;;5.20;;
47429;SDS011;33181;49.246;7.372;2023-04-16T03:35:04;8.97;;;5.90;;
47429;SDS011;33181;49.246;7.372;2023-04-16T03:37:31;6.40;;;5.00;;
47429;SDS011;33181;49.246;7.372;2023-04-16T03:39:58;7.37;;;5.60;;
47429;SDS011;33181;49.246;7.372;2023-04-16T03:42:24;8.30;;;5.53;;
47429;SDS011;33181;49.246;7.372;2023-04-16T03:44:49;8.17;;;6.00;;
47429;SDS011;33181;49.246;7.372;2023-04-16T03:47:17;8.03;;;6.00;;
47429;SDS011;33181;49.246;7.372;2023-04-16T03:49:46;8.30;;;5.70;;
47429;SDS011;33181;49.246;7.372;2023-04-16T03:52:12;8.70;;;6.30;;
47429;SDS011;33181;49.246;7.372;2023-04-16T03:54:38;7.90;;;5.83;;
47429;SDS011;33181;49.246;7.372;2023-04-16T03:57:04;8.80;;;6.37;;
47429;SDS011;33181;49.246;7.372;2023-04-16T03:59:30;9.60;;;6.50;;
47429;SDS011;33181;49.246;7.372;2023-04-16T04:01:55;8.83;;;6.50;;
47429;SDS011;33181;49.246;7.372;2023-04-16T04:04:21;9.63;;;7.13;;
47429;SDS011;33181;49.246;7.372;2023-04-16T04:06:47;11.00;;;7.30;;
47429;SDS011;33181;49.246;7.372;2023-04-16T04:09:13;10.47;;;7.47;;
47429;SDS011;33181;49.246;7.372;2023-04-16T04:11:40;10.57;;;7.53;;
47429;SDS011;33181;49.246;7.372;2023-04-16T04:14:06;11.90;;;7.87;;
47429;SDS011;33181;49.246;7.372;2023-04-16T04:16:33;10.73;;;7.03;;
47429;SDS011;33181;49.246;7.372;2023-04-16T04:18:59;11.50;;;8.50;;
47429;SDS011;33181;49.246;7.372;2023-04-16T04:21:26;10.07;;;7.50;;
47429;SDS011;33181;49.246;7.372;2023-04-16T04:23:52;11.30;;;7.97;;
47429;SDS011;33181;49.246;7.372;2023-04-16T04:26:18;9.80;;;7.13;;
47429;SDS011;33181;49.246;7.372;2023-04-16T04:28:44;12.67;;;7.47;;
47429;SDS011;33181;49.246;7.372;2023-04-16T04:31:11;12.87;;;8.30;;
47429;SDS011;33181;49.246;7.372;2023-04-16T04:33:37;11.47;;;8.37;;
47429;SDS011;33181;49.246;7.372;2023-04-16T04:36:03;10.90;;;7.97;;
47429;SDS011;33181;49.246;7.372;2023-04-16T04:38:28;12.33;;;8.57;;
47429;SDS011;33181;49.246;7.372;2023-04-16T04:40:55;10.80;;;7.90;;
47429;SDS011;33181;49.246;7.372;2023-04-16T04:43:21;12.63;;;8.40;;
47429;SDS011;33181;49.246;7.372;2023-04-16T04:45:47;11.37;;;7.63;;
47429;SDS011;33181;49.246;7.372;2023-04-16T04:48:13;11.93;;;7.67;;
47429;SDS011;33181;49.246;7.372;2023-04-16T04:50:40;11.70;;;8.73;;
47429;SDS011;33181;49.246;7.372;2023-04-16T04:53:06;13.03;;;7.70;;
47429;SDS011;33181;49.246;7.372;2023-04-16T04:55:38;11.90;;;8.00;;
47429;SDS011;33181;49.246;7.372;2023-04-16T04:58:04;9.57;;;7.27;;
47429;SDS011;33181;49.246;7.372;2023-04-16T05:00:31;13.10;;;8.00;;
47429;SDS011;33181;49.246;7.372;2023-04-16T05:03:02;10.93;;;7.73;;
47429;SDS011;33181;49.246;7.372;2023-04-16T05:05:30;11.30;;;6.80;;
47429;SDS011;33181;49.246;7.372;2023-04-16T05:07:56;9.77;;;7.37;;
47429;SDS011;33181;49.246;7.372;2023-04-16T05:10:22;10.23;;;6.73;;
47429;SDS011;33181;49.246;7.372;2023-04-16T05:12:47;12.47;;;7.40;;
47429;SDS011;33181;49.246;7.372;2023-04-16T05:15:13;9.23;;;6.60;;
47429;SDS011;33181;49.246;7.372;2023-04-16T05:17:41;11.37;;;7.10;;
47429;SDS011;33181;49.246;7.372;2023-04-16T05:20:08;12.20;;;8.20;;
47429;SDS011;33181;49.246;7.372;2023-04-16T05:22:34;11.73;;;7.80;;
47429;SDS011;33181;49.246;7.372;2023-04-16T05:25:00;12.13;;;8.20;;
47429;SDS011;33181;49.246;7.372;2023-04-16T05:27:26;10.83;;;7.77;;
47429;SDS011;33181;49.246;7.372;2023-04-16T05:29:52;13.13;;;8.80;;
47429;SDS011;33181;49.246;7.372;2023-04-16T05:32:18;14.70;;;9.03;;
47429;SDS011;33181;49.246;7.372;2023-04-16T05:34:43;14.57;;;8.97;;
47429;SDS011;33181;49.246;7.372;2023-04-16T05:37:09;12.47;;;8.50;;
47429;SDS011;33181;49.246;7.372;2023-04-16T05:39:35;14.57;;;9.00;;
47429;SDS011;33181;49.246;7.372;2023-04-16T05:42:01;14.13;;;9.30;;
47429;SDS011;33181;49.246;7.372;2023-04-16T05:44:26;13.87;;;9.20;;
47429;SDS011;33181;49.246;7.372;2023-04-16T05:46:52;13.43;;;8.70;;
47429;SDS011;33181;49.246;7.372;2023-04-16T05:49:18;12.17;;;8.83;;
47429;SDS011;33181;49.246;7.372;2023-04-16T05:51:44;13.97;;;9.30;;
47429;SDS011;33181;49.246;7.372;2023-04-16T05:54:10;15.80;;;9.03;;
47429;SDS011;33181;49.246;7.372;2023-04-16T05:56:35;14.47;;;9.57;;
47429;SDS011;33181;49.246;7.372;2023-04-16T05:59:01;15.50;;;9.67;;
47429;SDS011;33181;49.246;7.372;2023-04-16T06:01:27;16.00;;;10.20;;
47429;SDS011;33181;49.246;7.372;2023-04-16T06:03:52;13.43;;;9.20;;
47429;SDS011;33181;49.246;7.372;2023-04-16T06:06:18;15.00;;;9.60;;
47429;SDS011;33181;49.246;7.372;2023-04-16T06:08:44;16.43;;;10.60;;
47429;SDS011;33181;49.246;7.372;2023-04-16T06:11:10;15.23;;;9.60;;
47429;SDS011;33181;49.246;7.372;2023-04-16T06:13:36;15.00;;;8.70;;
47429;SDS011;33181;49.246;7.372;2023-04-16T06:16:03;14.53;;;9.17;;
47429;SDS011;33181;49.246;7.372;2023-04-16T06:18:29;13.17;;;8.50;;
47429;SDS011;33181;49.246;7.372;2023-04-16T06:20:55;14.40;;;9.03;;
47429;SDS011;33181;49.246;7.372;2023-04-16T06:23:22;11.83;;;8.80;;
47429;SDS011;33181;49.246;7.372;2023-04-16T06:25:48;15.50;;;9.47;;
47429;SDS011;33181;49.246;7.372;2023-04-16T06:28:14;13.50;;;9.50;;
47429;SDS011;33181;49.246;7.372;2023-04-16T06:30:40;14.53;;;9.93;;
47429;SDS011;33181;49.246;7.372;2023-04-16T06:33:06;17.60;;;11.13;;
47429;SDS011;33181;49.246;7.372;2023-04-16T06:35:32;16.93;;;10.30;;
47429;SDS011;33181;49.246;7.372;2023-04-16T06:37:57;13.50;;;9.50;;
47429;SDS011;33181;49.246;7.372;2023-04-16T06:40:23;15.23;;;10.17;;
47429;SDS011;33181;49.246;7.372;2023-04-16T06:42:49;15.07;;;9.83;;
47429;SDS011;33181;49.246;7.372;2023-04-16T06:45:15;15.90;;;10.10;;
47429;SDS011;33181;49.246;7.372;2023-04-16T06:47:41;17.00;;;10.80;;
47429;SDS011;33181;49.246;7.372;2023-04-16T06:50:07;15.97;;;10.73;;
47429;SDS011;33181;49.246;7.372;2023-04-16T06:52:33;16.30;;;10.93;;
47429;SDS011;33181;49.246;7.372;2023-04-16T06:55:00;16.10;;;10.40;;
47429;SDS011;33181;49.246;7.372;2023-04-16T06:57:26;14.47;;;9.50;;
47429;SDS011;33181;49.246;7.372;2023-04-16T06:59:52;15.87;;;10.63;;
47429;SDS011;33181;49.246;7.372;2023-04-16T07:02:18;18.30;;;11.30;;
47429;SDS011;33181;49.246;7.372;2023-04-16T07:04:44;17.90;;;11.40;;
47429;SDS011;33181;49.246;7.372;2023-04-16T07:07:10;18.40;;;11.37;;
47429;SDS011;33181;49.246;7.372;2023-04-16T07:09:35;20.53;;;12.27;;
47429;SDS011;33181;49.246;7.372;2023-04-16T07:12:03;20.23;;;12.40;;
47429;SDS011;33181;49.246;7.372;2023-04-16T07:14:30;17.97;;;11.57;;
47429;SDS011;33181;49.246;7.372;2023-04-16T07:16:56;17.80;;;11.20;;
47429;SDS011;33181;49.246;7.372;2023-04-16T07:19:22;17.33;;;11.10;;
47429;SDS011;33181;49.246;7.372;2023-04-16T07:21:48;18.37;;;11.93;;
47429;SDS011;33181;49.246;7.372;2023-04-16T07:24:15;19.40;;;11.20;;
47429;SDS011;33181;49.246;7.372;2023-04-16T07:26:41;18.60;;;11.27;;
47429;SDS011;33181;49.246;7.372;2023-04-16T07:29:06;16.37;;;10.60;;
47429;SDS011;33181;49.246;7.372;2023-04-16T07:31:32;17.23;;;11.20;;
47429;SDS011;33181;49.246;7.372;2023-04-16T07:33:58;19.43;;;11.13;;
47429;SDS011;33181;49.246;7.372;2023-04-16T07:36:24;16.93;;;11.00;;
47429;SDS011;33181;49.246;7.372;2023-04-16T07:38:51;20.30;;;12.40;;
47429;SDS011;33181;49.246;7.372;2023-04-16T07:41:17;18.23;;;11.30;;
47429;SDS011;33181;49.246;7.372;2023-04-16T07:43:43;16.87;;;10.97;;
47429;SDS011;33181;49.246;7.372;2023-04-16T07:46:08;18.67;;;11.27;;
47429;SDS011;33181;49.246;7.372;2023-04-16T07:48:34;17.07;;;10.40;;
47429;SDS011;33181;49.246;7.372;2023-04-16T07:51:00;18.20;;;11.80;;
47429;SDS011;33181;49.246;7.372;2023-04-16T07:53:26;17.10;;;10.87;;
47429;SDS011;33181;49.246;7.372;2023-04-16T07:55:51;17.77;;;10.50;;
47429;SDS011;33181;49.246;7.372;2023-04-16T07:58:17;17.13;;;10.30;;
47429;SDS011;33181;49.246;7.372;2023-04-16T08:00:43;14.93;;;9.57;;
47429;SDS011;33181;49.246;7.372;2023-04-16T08:03:09;15.50;;;10.13;;
47429;SDS011;33181;49.246;7.372;2023-04-16T08:05:35;15.17;;;10.03;;
47429;SDS011;33181;49.246;7.372;2023-04-16T08:08:01;14.47;;;9.20;;
47429;SDS011;33181;49.246;7.372;2023-04-16T08:10:27;16.43;;;9.43;;
47429;SDS011;33181;49.246;7.372;2023-04-16T08:12:52;14.63;;;9.07;;
47429;SDS011;33181;49.246;7.372;2023-04-16T08:15:18;11.60;;;8.10;;
47429;SDS011;33181;49.246;7.372;2023-04-16T08:17:44;11.40;;;8.27;;
47429;SDS011;33181;49.246;7.372;2023-04-16T08:20:10;13.23;;;8.63;;
47429;SDS011;33181;49.246;7.372;2023-04-16T08:22:36;13.40;;;8.70;;
47429;SDS011;33181;49.246;7.372;2023-04-16T08:25:02;12.90;;;8.50;;
47429;SDS011;33181;49.246;7.372;2023-04-16T08:27:28;12.00;;;7.80;;
47429;SDS011;33181;49.246;7.372;2023-04-16T08:29:54;12.00;;;8.00;;
47429;SDS011;33181;49.246;7.372;2023-04-16T08:32:20;12.30;;;8.37;;
47429;SDS011;33181;49.246;7.372;2023-04-16T08:34:45;14.27;;;8.60;;
47429;SDS011;33181;49.246;7.372;2023-04-16T08:37:11;13.40;;;8.10;;
47429;SDS011;33181;49.246;7.372;2023-04-16T08:39:37;11.87;;;8.17;;
47429;SDS011;33181;49.246;7.372;2023-04-16T08:42:03;13.73;;;8.30;;
47429;SDS011;33181;49.246;7.372;2023-04-16T08:44:33;10.50;;;7.43;;
47429;SDS011;33181;49.246;7.372;2023-04-16T08:47:02;11.60;;;7.20;;
47429;SDS011;33181;49.246;7.372;2023-04-16T08:49:30;11.60;;;7.50;;
47429;SDS011;33181;49.246;7.372;2023-04-16T08:52:07;12.53;;;7.70;;
47429;SDS011;33181;49.246;7.372;2023-04-16T08:57:22;9.93;;;7.20;;
47429;SDS011;33181;49.246;7.372;2023-04-16T08:59:50;9.60;;;7.27;;
47429;SDS011;33181;49.246;7.372;2023-04-16T09:02:18;11.40;;;7.67;;
47429;SDS011;33181;49.246;7.372;2023-04-16T09:04:44;9.57;;;6.97;;
47429;SDS011;33181;49.246;7.372;2023-04-16T09:07:12;9.77;;;6.93;;
47429;SDS011;33181;49.246;7.372;2023-04-16T09:09:39;10.07;;;6.40;;
47429;SDS011;33181;49.246;7.372;2023-04-16T09:12:07;10.67;;;6.77;;
47429;SDS011;33181;49.246;7.372;2023-04-16T09:14:34;11.10;;;7.27;;
47429;SDS011;33181;49.246;7.372;2023-04-16T09:17:02;9.00;;;6.60;;
47429;SDS011;33181;49.246;7.372;2023-04-16T09:19:28;12.47;;;7.20;;
47429;SDS011;33181;49.246;7.372;2023-04-16T09:21:53;10.03;;;7.60;;
47429;SDS011;33181;49.246;7.372;2023-04-16T09:24:20;11.53;;;7.37;;
47429;SDS011;33181;49.246;7.372;2023-04-16T09:26:47;9.97;;;6.73;;
47429;SDS011;33181;49.246;7.372;2023-04-16T09:29:32;11.33;;;7.00;;
47429;SDS011;33181;49.246;7.372;2023-04-16T09:32:06;10.23;;;7.10;;
47429;SDS011;33181;49.246;7.372;2023-04-16T09:34:34;10.90;;;7.10;;
47429;SDS011;33181;49.246;7.372;2023-04-16T09:37:25;11.10;;;7.40;;
47429;SDS011;33181;49.246;7.372;2023-04-16T09:39:56;8.80;;;6.20;;
47429;SDS011;33181;49.246;7.372;2023-04-16T09:42:32;10.90;;;7.20;;
47429;SDS011;33181;49.246;7.372;2023-04-16T09:45:01;9.80;;;7.03;;
47429;SDS011;33181;49.246;7.372;2023-04-16T09:50:07;12.40;;;6.63;;
47429;SDS011;33181;49.246;7.372;2023-04-16T09:52:35;9.63;;;7.03;;
47429;SDS011;33181;49.246;7.372;2023-04-16T09:55:02;9.53;;;6.77;;
47429;SDS011;33181;49.246;7.372;2023-04-16T09:57:29;10.00;;;7.20;;
47429;SDS011;33181;49.246;7.372;2023-04-16T10:00:00;11.70;;;7.27;;
47429;SDS011;33181;49.246;7.372;2023-04-16T10:02:28;10.63;;;6.90;;
47429;SDS011;33181;49.246;7.372;2023-04-16T10:04:55;9.47;;;6.57;;
47429;SDS011;33181;49.246;7.372;2023-04-16T10:07:21;10.30;;;7.37;;
47429;SDS011;33181;49.246;7.372;2023-04-16T10:09:52;9.93;;;7.03;;
47429;SDS011;33181;49.246;7.372;2023-04-16T10:12:18;10.03;;;7.53;;
47429;SDS011;33181;49.246;7.372;2023-04-16T10:14:44;9.63;;;6.87;;
47429;SDS011;33181;49.246;7.372;2023-04-16T10:17:10;9.30;;;6.90;;
47429;SDS011;33181;49.246;7.372;2023-04-16T10:19:36;10.43;;;7.40;;
47429;SDS011;33181;49.246;7.372;2023-04-16T10:22:05;11.37;;;7.50;;
47429;SDS011;33181;49.246;7.372;2023-04-16T10:24:31;10.70;;;7.63;;
47429;SDS011;33181;49.246;7.372;2023-04-16T10:26:58;9.80;;;6.60;;
47429;SDS011;33181;49.246;7.372;2023-04-16T10:29:25;8.90;;;6.30;;
47429;SDS011;33181;49.246;7.372;2023-04-16T10:31:55;9.97;;;6.90;;
47429;SDS011;33181;49.246;7.372;2023-04-16T10:34:22;9.73;;;6.70;;
47429;SDS011;33181;49.246;7.372;2023-04-16T10:36:50;9.07;;;6.63;;
47429;SDS011;33181;49.246;7.372;2023-04-16T10:39:19;9.03;;;6.50;;
47429;SDS011;33181;49.246;7.372;2023-04-16T10:41:47;10.63;;;7.13;;
47429;SDS011;33181;49.246;7.372;2023-04-16T10:44:15;9.10;;;6.20;;
47429;SDS011;33181;49.246;7.372;2023-04-16T10:46:45;10.20;;;6.80;;
47429;SDS011;33181;49.246;7.372;2023-04-16T10:49:16;9.90;;;6.07;;
47429;SDS011;33181;49.246;7.372;2023-04-16T10:51:53;8.97;;;6.37;;
47429;SDS011;33181;49.246;7.372;2023-04-16T10:54:25;9.50;;;6.50;;
47429;SDS011;33181;49.246;7.372;2023-04-16T10:56:55;9.70;;;6.53;;
47429;SDS011;33181;49.246;7.372;2023-04-16T10:59:23;11.03;;;6.43;;
47429;SDS011;33181;49.246;7.372;2023-04-16T11:01:58;9.20;;;6.60;;
47429;SDS011;33181;49.246;7.372;2023-04-16T11:04:36;8.57;;;6.50;;
47429;SDS011;33181;49.246;7.372;2023-04-16T11:07:14;10.17;;;7.10;;
47429;SDS011;33181;49.246;7.372;2023-04-16T11:15:11;10.20;;;6.97;;
47429;SDS011;33181;49.246;7.372;2023-04-16T11:17:40;9.27;;;6.73;;
47429;SDS011;33181;49.246;7.372;2023-04-16T11:20:15;11.97;;;7.10;;
47429;SDS011;33181;49.246;7.372;2023-04-16T11:22:42;9.67;;;6.77;;
47429;SDS011;33181;49.246;7.372;2023-04-16T11:25:09;8.80;;;6.03;;
47429;SDS011;33181;49.246;7.372;2023-04-16T11:27:36;7.87;;;5.80;;
47429;SDS011;33181;49.246;7.372;2023-04-16T11:32:35;9.23;;;6.60;;
47429;SDS011;33181;49.246;7.372;2023-04-16T11:35:03;10.03;;;6.63;;
47429;SDS011;33181;49.246;7.372;2023-04-16T11:37:46;9.30;;;6.67;;
47429;SDS011;33181;49.246;7.372;2023-04-16T11:40:14;9.70;;;6.60;;
47429;SDS011;33181;49.246;7.372;2023-04-16T11:42:40;10.80;;;6.70;;
47429;SDS011;33181;49.246;7.372;2023-04-16T11:45:07;9.13;;;6.73;;
47429;SDS011;33181;49.246;7.372;2023-04-16T11:47:42;9.73;;;6.40;;
47429;SDS011;33181;49.246;7.372;2023-04-16T11:50:25;9.40;;;6.47;;
47429;SDS011;33181;49.246;7.372;2023-04-16T11:52:54;8.80;;;6.60;;
47429;SDS011;33181;49.246;7.372;2023-04-16T11:55:27;9.37;;;6.50;;
47429;SDS011;33181;49.246;7.372;2023-04-16T11:57:53;9.80;;;7.30;;
47429;SDS011;33181;49.246;7.372;2023-04-16T12:00:19;10.10;;;6.60;;
47429;SDS011;33181;49.246;7.372;2023-04-16T12:02:49;9.60;;;7.00;;
47429;SDS011;33181;49.246;7.372;2023-04-16T12:05:33;9.20;;;6.30;;
47429;SDS011;33181;49.246;7.372;2023-04-16T12:08:06;10.43;;;7.03;;
47429;SDS011;33181;49.246;7.372;2023-04-16T12:10:37;10.00;;;7.17;;
47429;SDS011;33181;49.246;7.372;2023-04-16T12:13:19;9.83;;;7.40;;
47429;SDS011;33181;49.246;7.372;2023-04-16T12:15:49;10.70;;;7.10;;
47429;SDS011;33181;49.246;7.372;2023-04-16T12:18:21;10.63;;;6.93;;
47429;SDS011;33181;49.246;7.372;2023-04-16T12:20:52;11.47;;;7.43;;
47429;SDS011;33181;49.246;7.372;2023-04-16T12:23:28;12.67;;;7.53;;
47429;SDS011;33181;49.246;7.372;2023-04-16T12:25:58;12.70;;;7.43;;
47429;SDS011;33181;49.246;7.372;2023-04-16T12:28:35;9.67;;;6.70;;
47429;SDS011;33181;49.246;7.372;2023-04-16T12:31:02;9.83;;;6.90;;
47429;SDS011;33181;49.246;7.372;2023-04-16T12:33:29;11.93;;;7.57;;
47429;SDS011;33181;49.246;7.372;2023-04-16T12:35:55;10.03;;;6.97;;
47429;SDS011;33181;49.246;7.372;2023-04-16T12:38:21;10.70;;;7.40;;
47429;SDS011;33181;49.246;7.372;2023-04-16T12:40:47;10.07;;;7.30;;
47429;SDS011;33181;49.246;7.372;2023-04-16T12:43:12;9.90;;;6.80;;
47429;SDS011;33181;49.246;7.372;2023-04-16T12:45:38;11.00;;;7.17;;
47429;SDS011;33181;49.246;7.372;2023-04-16T12:48:04;10.33;;;7.13;;
47429;SDS011;33181;49.246;7.372;2023-04-16T12:50:31;9.33;;;6.17;;
47429;SDS011;33181;49.246;7.372;2023-04-16T12:52:57;8.93;;;6.30;;
47429;SDS011;33181;49.246;7.372;2023-04-16T12:55:23;10.03;;;7.10;;
47429;SDS011;33181;49.246;7.372;2023-04-16T12:57:50;10.40;;;7.30;;
47429;SDS011;33181;49.246;7.372;2023-04-16T13:00:19;10.37;;;7.40;;
47429;SDS011;33181;49.246;7.372;2023-04-16T13:02:46;14.03;;;7.67;;
47429;SDS011;33181;49.246;7.372;2023-04-16T13:05:11;12.50;;;7.37;;
47429;SDS011;33181;49.246;7.372;2023-04-16T13:07:40;10.63;;;7.60;;
47429;SDS011;33181;49.246;7.372;2023-04-16T13:10:07;12.50;;;7.90;;
47429;SDS011;33181;49.246;7.372;2023-04-16T13:12:33;11.47;;;8.17;;
47429;SDS011;33181;49.246;7.372;2023-04-16T13:14:59;12.20;;;7.80;;
47429;SDS011;33181;49.246;7.372;2023-04-16T13:17:24;12.10;;;7.93;;
47429;SDS011;33181;49.246;7.372;2023-04-16T13:19:53;10.47;;;7.20;;
47429;SDS011;33181;49.246;7.372;2023-04-16T13:22:18;10.80;;;8.00;;
47429;SDS011;33181;49.246;7.372;2023-04-16T13:24:44;10.00;;;7.23;;
47429;SDS011;33181;49.246;7.372;2023-04-16T13:27:10;12.20;;;8.10;;
47429;SDS011;33181;49.246;7.372;2023-04-16T13:29:37;13.63;;;8.97;;
47429;SDS011;33181;49.246;7.372;2023-04-16T13:32:03;13.20;;;8.50;;
47429;SDS011;33181;49.246;7.372;2023-04-16T13:34:29;13.50;;;8.00;;
47429;SDS011;33181;49.246;7.372;2023-04-16T13:36:55;12.40;;;8.23;;
47429;SDS011;33181;49.246;7.372;2023-04-16T13:39:21;13.20;;;8.93;;
47429;SDS011;33181;49.246;7.372;2023-04-16T13:41:47;12.27;;;8.20;;
47429;SDS011;33181;49.246;7.372;2023-04-16T13:44:15;12.00;;;8.13;;
47429;SDS011;33181;49.246;7.372;2023-04-16T13:46:41;12.90;;;8.27;;
47429;SDS011;33181;49.246;7.372;2023-04-16T13:49:11;12.83;;;8.33;;
47429;SDS011;33181;49.246;7.372;2023-04-16T13:51:37;13.17;;;8.57;;
47429;SDS011;33181;49.246;7.372;2023-04-16T13:54:03;13.70;;;8.50;;
47429;SDS011;33181;49.246;7.372;2023-04-16T13:56:29;15.40;;;8.60;;
47429;SDS011;33181;49.246;7.372;2023-04-16T13:58:54;13.13;;;9.20;;
47429;SDS011;33181;49.246;7.372;2023-04-16T14:01:20;12.77;;;8.80;;
47429;SDS011;33181;49.246;7.372;2023-04-16T14:03:46;14.17;;;9.40;;
47429;SDS011;33181;49.246;7.372;2023-04-16T14:06:12;15.17;;;9.00;;
47429;SDS011;33181;49.246;7.372;2023-04-16T14:08:39;13.03;;;9.63;;
47429;SDS011;33181;49.246;7.372;2023-04-16T14:11:05;15.43;;;9.47;;
47429;SDS011;33181;49.246;7.372;2023-04-16T14:13:31;15.57;;;9.60;;
47429;SDS011;33181;49.246;7.372;2023-04-16T14:15:56;14.33;;;10.10;;
47429;SDS011;33181;49.246;7.372;2023-04-16T14:18:25;15.20;;;9.97;;
47429;SDS011;33181;49.246;7.372;2023-04-16T14:20:50;14.27;;;9.80;;
47429;SDS011;33181;49.246;7.372;2023-04-16T14:23:16;15.30;;;9.53;;
47429;SDS011;33181;49.246;7.372;2023-04-16T14:25:42;13.73;;;9.70;;
47429;SDS011;33181;49.246;7.372;2023-04-16T14:28:10;14.67;;;10.20;;
47429;SDS011;33181;49.246;7.372;2023-04-16T14:30:36;14.03;;;9.23;;
47429;SDS011;33181;49.246;7.372;2023-04-16T14:33:03;15.47;;;10.20;;
47429;SDS011;33181;49.246;7.372;2023-04-16T14:35:30;14.47;;;10.13;;
47429;SDS011;33181;49.246;7.372;2023-04-16T14:37:57;14.10;;;10.17;;
47429;SDS011;33181;49.246;7.372;2023-04-16T14:40:23;16.40;;;10.73;;
47429;SDS011;33181;49.246;7.372;2023-04-16T14:42:49;15.40;;;10.17;;
47429;SDS011;33181;49.246;7.372;2023-04-16T14:45:15;15.77;;;10.67;;
47429;SDS011;33181;49.246;7.372;2023-04-16T14:47:41;15.60;;;10.00;;
47429;SDS011;33181;49.246;7.372;2023-04-16T14:50:11;17.13;;;10.70;;